createdAt,value
2019-02-15T00:01:27.963Z,1.73
2019-02-15T00:03:58.326Z,1.73
2019-02-15T00:06:28.903Z,1.83
2019-02-15T00:09:04.659Z,1.50
2019-02-15T00:11:37.278Z,1.60
2019-02-15T00:14:08.028Z,1.23
2019-02-15T00:16:39.526Z,1.64
2019-02-15T00:19:17.367Z,1.53
2019-02-15T00:21:49.817Z,1.80
2019-02-15T00:24:20.122Z,1.50
2019-02-15T00:26:56.320Z,1.72
2019-02-15T00:29:29.045Z,1.30
2019-02-15T00:32:04.265Z,1.22
2019-02-15T00:34:36.524Z,1.30
2019-02-15T00:37:07.131Z,1.30
2019-02-15T00:39:38.546Z,1.30
2019-02-15T00:42:14.098Z,1.40
2019-02-15T00:44:44.950Z,1.20
2019-02-15T00:47:28.151Z,1.40
2019-02-15T00:50:20.675Z,1.47
2019-02-15T00:53:12.372Z,1.72
2019-02-15T00:56:12.207Z,1.57
2019-02-15T00:59:07.868Z,1.10
2019-02-15T01:01:50.951Z,1.32
2019-02-15T01:04:34.755Z,1.32
2019-02-15T01:07:23.821Z,1.40
2019-02-15T01:10:11.895Z,1.30
2019-02-15T01:12:47.975Z,1.13
2019-02-15T01:15:18.808Z,1.27
2019-02-15T01:17:51.995Z,1.20
2019-02-15T01:20:37.080Z,1.23
2019-02-15T01:23:10.239Z,1.20
2019-02-15T01:26:02.637Z,1.10
2019-02-15T01:28:38.606Z,1.12
2019-02-15T01:31:31.797Z,1.33
2019-02-15T01:34:32.132Z,1.30
2019-02-15T01:37:10.795Z,1.10
2019-02-15T01:40:00.835Z,1.13
2019-02-15T01:42:51.283Z,1.13
2019-02-15T01:45:36.233Z,1.20
2019-02-15T01:48:06.874Z,1.30
2019-02-15T01:50:37.266Z,1.40
2019-02-15T01:53:09.609Z,1.20
2019-02-15T01:55:41.458Z,0.93
2019-02-15T01:58:12.159Z,1.33
2019-02-15T02:00:42.739Z,1.20
2019-02-15T02:03:14.109Z,1.20
2019-02-15T02:05:44.545Z,1.17
2019-02-15T02:08:24.058Z,0.90
2019-02-15T02:10:52.710Z,1.37
2019-02-15T02:13:23.051Z,1.57
2019-02-15T02:15:54.449Z,1.20
2019-02-15T02:18:25.206Z,1.10
2019-02-15T02:20:57.769Z,0.97
2019-02-15T02:23:27.681Z,1.30
2019-02-15T02:25:58.949Z,1.53
2019-02-15T02:28:29.737Z,1.30
2019-02-15T02:31:01.341Z,1.37
2019-02-15T02:33:31.951Z,1.37
2019-02-15T02:36:02.478Z,1.40
2019-02-15T02:38:35.318Z,1.27
2019-02-15T02:41:08.047Z,1.40
2019-02-15T02:43:38.631Z,1.50
2019-02-15T02:46:10.569Z,1.40
2019-02-15T02:48:42.289Z,1.60
2019-02-15T02:51:12.683Z,1.80
2019-02-15T02:53:45.465Z,1.40
2019-02-15T02:56:17.509Z,1.40
2019-02-15T02:58:48.189Z,1.55
2019-02-15T03:01:18.509Z,1.43
2019-02-15T03:03:52.725Z,1.10
2019-02-15T03:06:23.117Z,1.17
2019-02-15T03:08:55.927Z,1.20
2019-02-15T03:11:26.405Z,1.30
2019-02-15T03:13:57.678Z,1.40
2019-02-15T03:16:28.069Z,1.40
2019-02-15T03:18:58.920Z,1.30
2019-02-15T03:21:29.190Z,0.93
2019-02-15T03:24:01.216Z,1.40
2019-02-15T03:26:31.815Z,1.20
2019-02-15T03:29:03.785Z,1.00
2019-02-15T03:31:34.508Z,1.10
2019-02-15T03:34:06.425Z,1.10
2019-02-15T03:36:48.538Z,1.37
2019-02-15T03:39:50.622Z,1.20
2019-02-15T03:42:21.792Z,1.23
2019-02-15T03:44:53.316Z,1.20
2019-02-15T03:47:26.479Z,1.13
2019-02-15T03:49:58.419Z,1.00
2019-02-15T03:52:30.575Z,1.20
2019-02-15T03:55:00.964Z,0.93
2019-02-15T03:57:36.227Z,1.20
2019-02-15T04:00:10.318Z,1.07
2019-02-15T04:02:41.146Z,1.43
2019-02-15T04:05:11.830Z,1.30
2019-02-15T04:07:46.096Z,1.40
2019-02-15T04:10:18.477Z,1.10
2019-02-15T04:12:50.226Z,1.30
2019-02-15T04:15:20.907Z,1.50
2019-02-15T04:17:52.753Z,1.10
2019-02-15T04:20:24.394Z,1.40
2019-02-15T04:22:55.148Z,1.80
2019-02-15T04:25:25.508Z,1.23
2019-02-15T04:27:55.863Z,1.50
2019-02-15T04:30:26.283Z,1.50
2019-02-15T04:32:56.543Z,1.40
2019-02-15T04:35:27.223Z,1.33
2019-02-15T04:37:59.093Z,1.30
2019-02-15T04:40:29.730Z,1.20
2019-02-15T04:43:00.051Z,1.30
2019-02-15T04:45:30.646Z,1.30
2019-02-15T04:48:00.986Z,1.17
2019-02-15T04:50:31.956Z,1.17
2019-02-15T04:53:03.221Z,1.50
2019-02-15T04:55:35.875Z,1.10
2019-02-15T04:58:06.497Z,1.27
2019-02-15T05:00:49.551Z,1.35
2019-02-15T05:03:22.930Z,1.20
2019-02-15T05:05:57.463Z,1.10
2019-02-15T05:08:31.848Z,1.13
2019-02-15T05:11:02.891Z,1.32
2019-02-15T05:13:40.638Z,1.50
2019-02-15T05:16:11.675Z,1.30
2019-02-15T05:18:47.874Z,1.33
2019-02-15T05:21:18.533Z,1.33
2019-02-15T05:23:48.848Z,1.17
2019-02-15T05:26:21.587Z,1.25
2019-02-15T05:28:56.038Z,1.13
2019-02-15T05:31:27.970Z,1.22
2019-02-15T05:34:00.147Z,1.30
2019-02-15T05:36:30.925Z,1.27
2019-02-15T05:39:04.589Z,1.30
2019-02-15T05:41:37.904Z,1.50
2019-02-15T05:44:08.949Z,1.33
2019-02-15T05:46:39.252Z,1.30
2019-02-15T05:49:11.154Z,1.60
2019-02-15T05:51:43.086Z,1.50
2019-02-15T05:54:13.413Z,1.87
2019-02-15T05:56:44.078Z,1.47
2019-02-15T05:59:14.413Z,1.57
2019-02-15T06:01:46.081Z,1.65
2019-02-15T06:04:17.676Z,1.63
2019-02-15T06:06:48.175Z,2.00
2019-02-15T06:09:18.563Z,1.73
2019-02-15T06:11:49.654Z,1.60
2019-02-15T06:14:21.479Z,1.50
2019-02-15T06:16:52.047Z,1.60
2019-02-15T06:19:25.413Z,1.93
2019-02-15T06:21:56.089Z,1.57
2019-02-15T06:24:26.669Z,1.80
2019-02-15T06:26:59.106Z,1.70
2019-02-15T06:29:29.413Z,2.07
2019-02-15T06:32:00.103Z,1.60
2019-02-15T06:34:30.408Z,1.77
2019-02-15T06:37:02.256Z,1.62
2019-02-15T06:39:34.052Z,1.83
2019-02-15T06:42:05.017Z,1.70
2019-02-15T06:44:35.618Z,1.80
2019-02-15T06:47:08.952Z,1.62
2019-02-15T06:49:44.968Z,2.40
2019-02-15T06:52:14.285Z,1.90
2019-02-15T06:54:44.633Z,1.90
2019-02-15T06:57:16.329Z,2.00
2019-02-15T07:00:10.844Z,2.03
2019-02-15T07:02:52.666Z,1.97
2019-02-15T07:05:28.279Z,2.20
2019-02-15T07:07:58.929Z,2.40
2019-02-15T07:10:31.723Z,2.15
2019-02-15T07:13:01.285Z,2.10
2019-02-15T07:15:34.158Z,2.35
2019-02-15T07:18:04.478Z,3.00
2019-02-15T07:20:38.046Z,2.70
2019-02-15T07:23:15.766Z,2.33
2019-02-15T07:25:46.744Z,2.80
2019-02-15T07:28:17.136Z,2.53
2019-02-15T07:30:48.040Z,3.17
2019-02-15T07:33:23.095Z,3.10
2019-02-15T07:35:58.780Z,3.70
2019-02-15T07:38:29.140Z,3.20
2019-02-15T07:41:00.205Z,3.80
2019-02-15T07:43:34.635Z,3.63
2019-02-15T07:46:06.942Z,3.72
2019-02-15T07:48:38.561Z,3.97
2019-02-15T07:51:10.105Z,3.25
2019-02-15T07:53:40.482Z,3.40
2019-02-15T07:56:12.115Z,3.10
2019-02-15T07:58:44.340Z,3.37
2019-02-15T08:01:14.998Z,2.80
2019-02-15T08:03:45.656Z,2.85
2019-02-15T08:06:18.971Z,2.73
2019-02-15T08:08:52.620Z,2.72
2019-02-15T08:11:25.701Z,3.03
2019-02-15T08:13:55.960Z,3.07
2019-02-15T08:16:26.623Z,2.93
2019-02-15T08:19:00.543Z,2.70
2019-02-15T08:21:33.082Z,2.90
2019-02-15T08:24:03.326Z,2.70
2019-02-15T08:26:43.558Z,2.58
2019-02-15T08:29:13.839Z,2.80
2019-02-15T08:31:48.221Z,2.36
2019-02-15T08:34:18.945Z,2.40
2019-02-15T08:36:51.397Z,2.60
2019-02-15T08:39:21.717Z,2.30
2019-02-15T08:42:01.216Z,2.30
2019-02-15T08:44:24.729Z,2.30
2019-02-15T08:46:55.464Z,2.25
2019-02-15T08:49:26.137Z,1.73
2019-02-15T08:52:06.039Z,2.08
2019-02-15T08:54:37.396Z,1.70
2019-02-15T08:57:09.715Z,2.00
2019-02-15T08:59:40.257Z,1.63
2019-02-15T09:02:22.646Z,1.70
2019-02-15T09:04:57.434Z,1.27
2019-02-15T09:07:28.150Z,1.45
2019-02-15T09:09:58.662Z,1.60
2019-02-15T09:12:29.648Z,1.20
2019-02-15T09:15:03.950Z,1.43
2019-02-15T09:17:38.951Z,1.50
2019-02-15T09:20:10.659Z,1.20
2019-02-15T09:22:41.330Z,1.60
2019-02-15T09:25:18.146Z,1.20
2019-02-15T09:28:10.630Z,1.43
2019-02-15T09:30:45.017Z,1.47
2019-02-15T09:33:18.527Z,1.30
2019-02-15T09:35:49.150Z,1.35
2019-02-15T09:38:19.710Z,1.30
2019-02-15T09:40:50.309Z,1.40
2019-02-15T09:43:21.253Z,1.65
2019-02-15T09:45:52.027Z,1.30
2019-02-15T09:48:22.921Z,1.12
2019-02-15T09:50:53.855Z,1.40
2019-02-15T09:53:26.533Z,1.30
2019-02-15T09:55:56.817Z,1.30
2019-02-15T09:58:27.389Z,1.57
2019-02-15T10:00:57.934Z,1.20
2019-02-15T10:03:32.921Z,1.40
2019-02-15T10:06:03.252Z,1.80
2019-02-15T10:08:33.830Z,1.33
2019-02-15T10:11:05.314Z,1.40
2019-02-15T10:13:37.280Z,1.60
2019-02-15T10:16:11.577Z,1.20
2019-02-15T10:18:42.105Z,2.00
2019-02-15T10:21:12.602Z,1.77
2019-02-15T10:23:44.895Z,1.50
2019-02-15T10:26:18.127Z,1.50
2019-02-15T10:28:48.793Z,1.70
2019-02-15T10:31:19.500Z,2.17
2019-02-15T10:33:52.600Z,1.77
2019-02-15T10:36:27.532Z,2.00
2019-02-15T10:39:02.211Z,1.60
2019-02-15T10:41:33.955Z,1.93
2019-02-15T10:44:04.536Z,1.50
2019-02-15T10:46:37.829Z,1.50
2019-02-15T10:49:07.521Z,1.60
2019-02-15T10:51:38.186Z,1.67
2019-02-15T10:54:08.772Z,1.50
2019-02-15T10:56:41.055Z,1.40
2019-02-15T10:59:19.392Z,1.60
2019-02-15T11:01:46.724Z,1.30
2019-02-15T11:04:17.267Z,1.37
2019-02-15T11:06:48.141Z,1.50
2019-02-15T11:09:20.159Z,1.30
2019-02-15T11:11:50.877Z,1.80
2019-02-15T11:14:21.276Z,1.35
2019-02-15T11:16:52.551Z,1.60
2019-02-15T11:19:23.293Z,1.60
2019-02-15T11:21:53.554Z,1.40
2019-02-15T11:24:24.293Z,1.52
2019-02-15T11:26:54.631Z,1.60
2019-02-15T11:29:28.678Z,1.40
2019-02-15T11:32:11.166Z,1.30
2019-02-15T11:34:36.879Z,1.22
2019-02-15T11:37:07.375Z,1.40
2019-02-15T11:39:38.398Z,1.27
2019-02-15T11:42:08.759Z,1.60
2019-02-15T11:44:39.343Z,1.50
2019-02-15T11:47:09.834Z,1.40
2019-02-15T11:49:40.364Z,1.40
2019-02-15T11:52:10.962Z,1.30
2019-02-15T11:54:44.853Z,1.93
2019-02-15T11:57:15.136Z,1.40
2019-02-15T11:59:56.517Z,1.30
2019-02-15T12:02:26.949Z,1.40
2019-02-15T12:04:59.008Z,1.22
2019-02-15T12:07:29.369Z,1.50
2019-02-15T12:09:59.988Z,1.43
2019-02-15T12:12:43.113Z,1.33
2019-02-15T12:15:09.289Z,1.35
2019-02-15T12:17:41.531Z,1.43
2019-02-15T12:20:12.886Z,1.23
2019-02-15T12:22:45.599Z,1.50
2019-02-15T12:25:22.505Z,1.75
2019-02-15T12:27:54.161Z,1.20
2019-02-15T12:30:28.446Z,2.20
2019-02-15T12:32:59.166Z,1.30
2019-02-15T12:35:29.836Z,1.60
2019-02-15T12:38:03.965Z,1.30
2019-02-15T12:40:34.751Z,1.30
2019-02-15T12:43:05.193Z,1.37
2019-02-15T12:45:35.792Z,1.55
2019-02-15T12:48:08.479Z,1.53
2019-02-15T12:50:52.685Z,1.40
2019-02-15T12:53:24.979Z,1.30
2019-02-15T12:55:55.583Z,1.27
2019-02-15T12:58:27.547Z,1.10
2019-02-15T13:01:02.049Z,1.60
2019-02-15T13:03:37.921Z,1.17
2019-02-15T13:06:08.440Z,1.30
2019-02-15T13:08:40.767Z,1.40
2019-02-15T13:11:11.808Z,1.35
2019-02-15T13:13:43.530Z,1.20
2019-02-15T13:16:16.197Z,1.37
2019-02-15T13:18:47.413Z,1.52
2019-02-15T13:21:20.050Z,1.10
2019-02-15T13:23:52.922Z,1.30
2019-02-15T13:26:23.505Z,1.20
2019-02-15T13:28:56.469Z,1.47
2019-02-15T13:31:27.250Z,1.35
2019-02-15T13:33:59.355Z,1.00
2019-02-15T13:36:29.966Z,1.10
2019-02-15T13:39:04.465Z,1.30
2019-02-15T13:41:35.830Z,1.40
2019-02-15T13:44:06.146Z,1.10
2019-02-15T13:46:36.556Z,1.10
2019-02-15T13:49:07.285Z,1.22
2019-02-15T13:51:39.254Z,1.40
2019-02-15T13:54:12.756Z,1.40
2019-02-15T13:56:43.555Z,1.20
2019-02-15T13:59:14.225Z,1.40
2019-02-15T14:01:44.853Z,1.20
2019-02-15T14:04:16.439Z,1.10
2019-02-15T14:06:54.576Z,1.17
2019-02-15T14:09:26.922Z,1.17
2019-02-15T14:11:59.008Z,1.47
2019-02-15T14:14:29.423Z,1.20
2019-02-15T14:17:04.327Z,1.20
2019-02-15T14:19:35.677Z,1.20
2019-02-15T14:22:06.335Z,1.30
2019-02-15T14:24:36.667Z,1.10
2019-02-15T14:27:10.318Z,1.35
2019-02-15T14:29:40.979Z,1.60
2019-02-15T14:32:11.604Z,1.23
2019-02-15T14:34:42.023Z,1.20
2019-02-15T14:37:13.937Z,1.00
2019-02-15T14:39:45.910Z,1.42
2019-02-15T14:42:16.544Z,1.20
2019-02-15T14:44:47.019Z,1.07
2019-02-15T14:47:22.248Z,1.15
2019-02-15T14:49:52.906Z,1.00
2019-02-15T14:52:23.783Z,1.17
2019-02-15T14:54:54.124Z,1.30
2019-02-15T14:57:24.584Z,1.17
2019-02-15T14:59:54.988Z,0.90
2019-02-15T15:02:25.571Z,0.93
2019-02-15T15:04:57.111Z,1.00
2019-02-15T15:07:29.981Z,1.30
2019-02-15T15:10:00.352Z,1.10
2019-02-15T15:12:31.211Z,1.10
2019-02-15T15:15:05.729Z,1.13
2019-02-15T15:17:36.212Z,1.12
2019-02-15T15:20:07.994Z,1.10
2019-02-15T15:22:38.802Z,1.30
2019-02-15T15:25:10.963Z,1.00
2019-02-15T15:27:41.745Z,1.30
2019-02-15T15:30:14.493Z,1.27
2019-02-15T15:32:46.539Z,1.10
2019-02-15T15:35:17.470Z,1.00
2019-02-15T15:37:52.162Z,1.50
2019-02-15T15:40:22.731Z,1.00
2019-02-15T15:42:59.257Z,1.23
2019-02-15T15:45:32.525Z,1.18
2019-02-15T15:48:03.238Z,1.12
2019-02-15T15:50:34.961Z,1.10
2019-02-15T15:53:07.730Z,1.20
2019-02-15T15:55:37.541Z,1.20
2019-02-15T15:58:10.915Z,1.12
2019-02-15T16:00:41.361Z,1.10
2019-02-15T16:03:12.048Z,1.30
2019-02-15T16:05:42.727Z,1.17
2019-02-15T16:08:15.457Z,1.12
2019-02-15T16:10:47.308Z,1.10
2019-02-15T16:13:18.780Z,1.00
2019-02-15T16:15:51.232Z,0.90
2019-02-15T16:18:33.149Z,1.20
2019-02-15T16:21:00.709Z,1.00
2019-02-15T16:23:31.134Z,0.77
2019-02-15T16:26:02.020Z,1.05
2019-02-15T16:28:34.606Z,1.10
2019-02-15T16:31:12.214Z,1.10
2019-02-15T16:33:40.344Z,1.12
2019-02-15T16:36:11.003Z,1.20
2019-02-15T16:38:43.458Z,0.90
2019-02-15T16:41:13.982Z,1.43
2019-02-15T16:43:44.777Z,1.30
2019-02-15T16:46:15.158Z,0.93
2019-02-15T16:48:51.556Z,1.27
2019-02-15T16:51:21.917Z,0.93
2019-02-15T16:53:54.412Z,1.35
2019-02-15T16:56:24.944Z,1.23
2019-02-15T16:58:55.615Z,1.43
2019-02-15T17:01:26.448Z,1.25
2019-02-15T17:03:56.799Z,1.13
2019-02-15T17:06:27.143Z,1.20
2019-02-15T17:08:57.659Z,1.10
2019-02-15T17:11:28.287Z,1.50
2019-02-15T17:13:58.972Z,1.20
2019-02-15T17:16:30.001Z,0.90
2019-02-15T17:19:00.379Z,1.77
2019-02-15T17:21:31.042Z,1.30
2019-02-15T17:24:04.024Z,1.90
2019-02-15T17:26:34.648Z,1.47
2019-02-15T17:29:38.636Z,1.50
2019-02-15T17:32:39.968Z,1.40
2019-02-15T17:35:16.361Z,1.50
2019-02-15T17:37:48.331Z,1.37
2019-02-15T17:40:20.952Z,1.50
2019-02-15T17:42:51.784Z,1.67
2019-02-15T17:45:22.105Z,1.30
2019-02-15T17:47:52.954Z,1.30
2019-02-15T17:50:23.456Z,1.30
2019-02-15T17:52:56.318Z,1.60
2019-02-15T17:55:27.109Z,1.10
2019-02-15T17:57:57.981Z,1.50
2019-02-15T18:00:30.839Z,1.40
2019-02-15T18:03:01.723Z,1.10
2019-02-15T18:05:34.064Z,1.10
2019-02-15T18:08:06.229Z,1.30
2019-02-15T18:10:37.142Z,1.10
2019-02-15T18:13:09.772Z,1.30
2019-02-15T18:15:44.536Z,1.10
2019-02-15T18:18:15.318Z,1.55
2019-02-15T18:20:46.878Z,1.10
2019-02-15T18:23:19.245Z,1.47
2019-02-15T18:25:50.042Z,1.37
2019-02-15T18:28:20.447Z,1.40
2019-02-15T18:30:50.868Z,2.00
2019-02-15T18:33:21.277Z,1.33
2019-02-15T18:35:52.152Z,1.63
2019-02-15T18:38:22.826Z,1.90
2019-02-15T18:40:53.438Z,1.33
2019-02-15T18:43:25.417Z,1.40
2019-02-15T18:45:57.505Z,1.40
2019-02-15T18:48:28.194Z,1.20
2019-02-15T18:50:58.519Z,1.30
2019-02-15T18:53:31.939Z,1.20
2019-02-15T18:56:02.298Z,1.47
2019-02-15T18:58:37.428Z,1.30
2019-02-15T19:01:06.940Z,1.07
2019-02-15T19:03:38.894Z,1.30
2019-02-15T19:06:09.290Z,1.27
2019-02-15T19:08:39.855Z,1.02
2019-02-15T19:11:14.223Z,1.23
2019-02-15T19:13:52.308Z,1.40
2019-02-15T19:16:21.805Z,1.10
2019-02-15T19:18:52.254Z,1.37
2019-02-15T19:21:26.967Z,1.10
2019-02-15T19:23:57.607Z,1.07
2019-02-15T19:26:28.058Z,1.10
2019-02-15T19:29:01.191Z,1.07
2019-02-15T19:31:31.738Z,1.20
2019-02-15T19:34:11.422Z,1.13
2019-02-15T19:36:43.058Z,1.20
2019-02-15T19:39:14.092Z,1.37
2019-02-15T19:41:44.561Z,1.20
2019-02-15T19:44:16.585Z,1.23
2019-02-15T19:46:47.116Z,1.20
2019-02-15T19:49:22.160Z,1.20
2019-02-15T19:51:52.812Z,1.10
2019-02-15T19:54:23.113Z,1.20
2019-02-15T19:56:53.964Z,1.10
2019-02-15T19:59:25.537Z,1.20
2019-02-15T20:01:57.275Z,1.27
2019-02-15T20:04:27.689Z,1.10
2019-02-15T20:07:11.313Z,1.10
2019-02-15T20:09:43.305Z,1.33
2019-02-15T20:12:13.686Z,1.20
2019-02-15T20:14:46.713Z,1.40
2019-02-15T20:17:20.778Z,1.30
2019-02-15T20:19:51.411Z,1.30
2019-02-15T20:22:21.792Z,1.50
2019-02-15T20:24:53.708Z,1.60
2019-02-15T20:27:25.816Z,1.30
2019-02-15T20:29:56.269Z,1.30
2019-02-15T20:32:30.418Z,1.50
2019-02-15T20:35:03.574Z,1.30
2019-02-15T20:37:34.113Z,1.47
2019-02-15T20:40:08.490Z,1.62
2019-02-15T20:42:39.979Z,1.40
2019-02-15T20:45:13.201Z,1.50
2019-02-15T20:47:43.846Z,1.43
2019-02-15T20:50:15.545Z,1.50
2019-02-15T20:52:47.087Z,1.57
2019-02-15T20:55:19.365Z,2.00
2019-02-15T20:57:49.785Z,1.50
2019-02-15T21:00:22.652Z,1.42
2019-02-15T21:02:53.288Z,1.47
2019-02-15T21:05:24.911Z,1.50
2019-02-15T21:07:55.759Z,1.50
2019-02-15T21:10:27.320Z,1.80
2019-02-15T21:12:59.034Z,1.73
2019-02-15T21:15:31.270Z,1.80
2019-02-15T21:18:01.650Z,1.60
2019-02-15T21:20:35.969Z,1.63
2019-02-15T21:23:06.386Z,1.90
2019-02-15T21:25:38.495Z,1.72
2019-02-15T21:28:10.912Z,1.90
2019-02-15T21:30:42.116Z,1.88
2019-02-15T21:33:14.103Z,1.67
2019-02-15T21:35:46.108Z,1.85
2019-02-15T21:38:20.278Z,2.03
2019-02-15T21:40:52.273Z,1.80
2019-02-15T21:43:22.901Z,2.17
2019-02-15T21:45:53.945Z,1.83
2019-02-15T21:48:25.432Z,1.97
2019-02-15T21:50:57.220Z,1.90
2019-02-15T21:53:28.544Z,1.97
2019-02-15T21:56:01.628Z,2.00
2019-02-15T21:58:32.091Z,1.77
2019-02-15T22:01:07.285Z,2.07
2019-02-15T22:03:37.645Z,2.40
2019-02-15T22:06:08.075Z,2.10
2019-02-15T22:08:38.370Z,2.30
2019-02-15T22:11:16.633Z,2.03
2019-02-15T22:13:44.779Z,2.23
2019-02-15T22:16:37.040Z,2.53
2019-02-15T22:19:19.529Z,2.20
2019-02-15T22:21:51.335Z,2.40
2019-02-15T22:25:26.186Z,2.60
2019-02-15T22:28:27.852Z,2.40
2019-02-15T22:30:58.841Z,2.17
2019-02-15T22:33:30.182Z,2.37
2019-02-15T22:36:00.817Z,2.42
2019-02-15T22:38:31.357Z,2.53
2019-02-15T22:41:17.461Z,2.60
2019-02-15T22:43:48.134Z,2.40
2019-02-15T22:46:18.490Z,2.43
2019-02-15T22:48:52.336Z,2.23
2019-02-15T22:51:23.991Z,2.57
2019-02-15T22:53:56.462Z,3.05
2019-02-15T22:56:26.996Z,2.60
2019-02-15T22:58:59.962Z,2.50
2019-02-15T23:01:30.506Z,2.67
2019-02-15T23:04:00.857Z,2.53
2019-02-15T23:06:31.223Z,2.53
2019-02-15T23:09:04.323Z,2.65
2019-02-15T23:11:36.484Z,2.50
2019-02-15T23:14:07.322Z,2.90
2019-02-15T23:16:37.817Z,2.60
2019-02-15T23:19:09.483Z,2.80
2019-02-15T23:21:45.998Z,2.80
2019-02-15T23:24:17.480Z,2.83
2019-02-15T23:26:50.006Z,2.83
2019-02-15T23:29:24.908Z,2.77
2019-02-15T23:31:55.196Z,2.73
2019-02-15T23:34:26.935Z,2.77
2019-02-15T23:36:57.300Z,2.87
2019-02-15T23:39:29.993Z,2.70
2019-02-15T23:42:00.652Z,2.70
2019-02-15T23:44:35.661Z,2.17
2019-02-15T23:47:05.989Z,2.83
2019-02-15T23:49:36.815Z,2.73
2019-02-15T23:52:09.899Z,2.67
2019-02-15T23:54:39.420Z,2.90
2019-02-15T23:57:10.095Z,2.83
2019-02-15T23:59:41.987Z,2.83
